Vidnoe — UBDU — position and weather

sailwx.info

Track history (hours):
 
Tides and Currents Weather Stations Pressure Air Temp Water Temp Dewpoint Dewpoint Depression Visibility Wind Speed Wind Dir Waves Ship Positions

Vidnoe

Last reported at 2016-Apr-29 22:33 UTC. Time now 2016-Apr-29 23:31 UTC.
Position N 59°53' E 030°13'.

Length 115 m; beam 17 m.

Type: Tanker. MMSI: 273516400.

Date/timePositionNaut miles runAvg speedWind from/ knotsBaromVisibWave heightAir tempDewpointWater temp
2016-Apr-29 22:33N 59°53' E 030°13'0 0.0
2016-Apr-29 21:33N 59°53' E 030°13'0 0.0
2016-Apr-29 20:33N 59°53' E 030°13'0 0.0
2016-Apr-29 19:33N 59°53' E 030°13'0 0.0
2016-Apr-29 18:33N 59°53' E 030°13'0 0.0
2016-Apr-29 17:33N 59°53' E 030°13'0 0.0
2016-Apr-29 16:33N 59°53' E 030°13'0 0.0
2016-Apr-29 15:33N 59°53' E 030°13'0 0.0
2016-Apr-29 14:33N 59°53' E 030°13'0 0.0
2016-Apr-29 13:33N 59°53' E 030°13'0 0.0
2016-Apr-29 12:33N 59°53' E 030°13'0 0.0
2016-Apr-29 11:30N 59°53' E 030°13'0 0.0
2016-Apr-29 10:33N 59°53' E 030°13'0 0.0
2016-Apr-29 09:33N 59°53' E 030°13'0 0.0
2016-Apr-29 08:33N 59°53' E 030°13'0 0.0
2016-Apr-29 07:33N 59°53' E 030°13'0 0.0
2016-Apr-29 06:33N 59°53' E 030°13'0 0.0
2016-Apr-29 05:33N 59°53' E 030°13'0 0.0
2016-Apr-29 04:33N 59°53' E 030°13'0 0.0
2016-Apr-29 03:33N 59°53' E 030°13'0 0.0
2016-Apr-29 02:33N 59°53' E 030°13'0 0.0
2016-Apr-29 01:30N 59°53' E 030°13'0 0.0
2016-Apr-29 00:33N 59°53' E 030°13'0 0.0
2016-Apr-28 23:33N 59°53' E 030°13'0 0.0
2016-Apr-28 22:33N 59°53' E 030°13'0 0.0
2016-Apr-28 21:33N 59°53' E 030°13'0 0.0
2016-Apr-28 20:33N 59°53' E 030°13'0 0.0
2016-Apr-28 19:33N 59°53' E 030°13'0 0.0
2016-Apr-28 18:33N 59°53' E 030°13'0 0.0
2016-Apr-28 17:30N 59°53' E 030°13'0 0.0
2016-Apr-28 16:33N 59°53' E 030°13'0 0.0
2016-Apr-28 15:33N 59°53' E 030°13'0 0.0
2016-Apr-28 14:33N 59°53' E 030°13'0 0.0
2016-Apr-28 13:33N 59°53' E 030°13'0 0.0
2016-Apr-28 12:33N 59°53' E 030°13'0 0.0
2016-Apr-28 11:33N 59°53' E 030°13'0 0.0
2016-Apr-28 10:33N 59°53' E 030°13'0 0.0
2016-Apr-28 09:33N 59°53' E 030°13'0 0.0
2016-Apr-28 08:33N 59°53' E 030°13'0 0.0
2016-Apr-28 07:33N 59°53' E 030°13'0 0.0
2016-Apr-28 06:33N 59°53' E 030°13'0 0.0
2016-Apr-28 05:33N 59°53' E 030°13'3 3.1
2016-Apr-28 04:33N 59°54' E 030°08'1110.6
2016-Apr-28 03:33N 59°58' E 029°48'1110.7
2016-Apr-28 02:33N 60°01' E 029°28'4 0.5
2016-Apr-27 18:13N 60°01' E 029°20'811.6
2016-Apr-27 17:33N 60°02' E 029°04'1211.6
2016-Apr-27 16:33N 60°00' E 028°41'1212.3
2016-Apr-27 15:33N 59°50' E 028°26'4 3.4
2016-Apr-27 14:30N 59°47' E 028°25'0 0.1
2016-Apr-27 13:33N 59°47' E 028°25'0 0.1
2016-Apr-27 12:33N 59°47' E 028°25'0 0.0
2016-Apr-27 11:33N 59°47' E 028°25'0 0.0
2016-Apr-27 10:33N 59°47' E 028°25'0 0.0
2016-Apr-27 09:33N 59°47' E 028°25'0 0.0
2016-Apr-27 08:33N 59°47' E 028°25'0 0.0
2016-Apr-27 07:24N 59°47' E 028°25'0 0.0
2016-Apr-27 06:27N 59°47' E 028°25'0 0.0
2016-Apr-27 05:27N 59°47' E 028°25'0 0.0
2016-Apr-27 04:27N 59°47' E 028°25'0 0.0
2016-Apr-27 03:30N 59°47' E 028°25'0 0.2
2016-Apr-27 02:30N 59°47' E 028°25'0 0.0
2016-Apr-27 01:30N 59°47' E 028°25'0 0.1
2016-Apr-27 00:33N 59°47' E 028°25'5 4.6
2016-Apr-26 23:33N 59°42' E 028°22'1 0.8
2016-Apr-26 22:24N 59°42' E 028°21'0 0.0
2016-Apr-26 21:24N 59°42' E 028°21'0 0.0
2016-Apr-26 20:27N 59°42' E 028°21'0 0.0
2016-Apr-26 19:30N 59°42' E 028°21'0 0.0
2016-Apr-26 18:30N 59°42' E 028°21'0 0.0
2016-Apr-26 17:33N 59°42' E 028°21'0 0.0
2016-Apr-26 16:33N 59°42' E 028°21'0 0.0
2016-Apr-26 15:33N 59°42' E 028°21'0 0.0
2016-Apr-26 14:33N 59°42' E 028°21'0 0.0
2016-Apr-26 13:33N 59°42' E 028°21'0 0.0
2016-Apr-26 12:33N 59°42' E 028°21'0 0.0
2016-Apr-26 11:33N 59°42' E 028°21'0 0.0
2016-Apr-26 10:24N 59°42' E 028°21'0 0.0
2016-Apr-26 09:24N 59°42' E 028°21'0 0.0
2016-Apr-26 08:27N 59°42' E 028°21'0 0.0
2016-Apr-26 07:27N 59°42' E 028°21'0 0.0
2016-Apr-26 06:27N 59°42' E 028°21'0 0.0
2016-Apr-26 05:30N 59°42' E 028°21'0 0.0
2016-Apr-26 04:30N 59°42' E 028°21'0 0.0
2016-Apr-26 03:33N 59°42' E 028°21'0 0.0
2016-Apr-26 02:33N 59°42' E 028°21'0 0.0
2016-Apr-26 01:33N 59°42' E 028°21'2 1.5
2016-Apr-26 00:33N 59°41' E 028°24'1 0.7
2016-Apr-25 23:33N 59°42' E 028°26'0 0.0
2016-Apr-25 22:33N 59°42' E 028°26'0 0.0
2016-Apr-25 21:33N 59°42' E 028°26'0 0.0
2016-Apr-25 20:33N 59°42' E 028°26'0 0.0
2016-Apr-25 19:33N 59°42' E 028°26'0 0.0
2016-Apr-25 18:33N 59°42' E 028°26'0 0.0
2016-Apr-25 17:33N 59°42' E 028°26'0 0.0
2016-Apr-25 16:33N 59°42' E 028°26'0 0.0
2016-Apr-25 15:33N 59°42' E 028°26'0 0.0
2016-Apr-25 14:33N 59°42' E 028°26'0 0.0
2016-Apr-25 13:33N 59°42' E 028°26'0 0.0
2016-Apr-25 12:33N 59°42' E 028°26'0 0.2
2016-Apr-25 11:33N 59°42' E 028°25'2 2.0
2016-Apr-25 10:33N 59°42' E 028°21'0 0.1
2016-Apr-25 09:27N 59°42' E 028°21'0 0.0
2016-Apr-25 08:30N 59°42' E 028°21'0 0.0
2016-Apr-25 07:30N 59°42' E 028°21'0 0.0
2016-Apr-25 06:33N 59°42' E 028°21'0 0.0
2016-Apr-25 05:30N 59°42' E 028°21'0 0.0
2016-Apr-25 04:33N 59°42' E 028°21'0 0.1
2016-Apr-25 03:33N 59°42' E 028°21'0 0.0
2016-Apr-25 02:33N 59°42' E 028°21'0 0.0
2016-Apr-25 01:33N 59°42' E 028°21'0 0.0
2016-Apr-25 00:33N 59°42' E 028°21'0 0.0
2016-Apr-24 23:24N 59°42' E 028°21'0 0.0
2016-Apr-24 22:24N 59°42' E 028°21'0 0.0
2016-Apr-24 21:27N 59°42' E 028°21'0 0.0
2016-Apr-24 20:27N 59°42' E 028°21'0 0.0
2016-Apr-24 19:30N 59°42' E 028°21'0 0.0
2016-Apr-24 18:30N 59°42' E 028°21'0 0.0
2016-Apr-24 17:30N 59°42' E 028°21'0 0.0
2016-Apr-24 16:33N 59°42' E 028°21'0 0.0
2016-Apr-24 15:33N 59°42' E 028°21'0 0.0
2016-Apr-24 14:33N 59°42' E 028°21'0 0.0
2016-Apr-24 13:33N 59°42' E 028°21'0 0.1
2016-Apr-24 12:33N 59°42' E 028°21'0 0.0
2016-Apr-24 11:33N 59°42' E 028°21'0 0.0
2016-Apr-24 10:33N 59°42' E 028°21'0 0.0
2016-Apr-24 09:24N 59°42' E 028°21'0 0.1
2016-Apr-24 08:24N 59°42' E 028°21'0 0.0
2016-Apr-24 07:27N 59°42' E 028°21'0 0.0
2016-Apr-24 06:27N 59°42' E 028°21'0 0.0
2016-Apr-24 05:30N 59°42' E 028°21'0 0.0
2016-Apr-24 04:30N 59°42' E 028°21'0 0.0
2016-Apr-24 03:30N 59°42' E 028°21'0 0.0
2016-Apr-24 02:33N 59°42' E 028°21'0 0.0
2016-Apr-24 01:33N 59°42' E 028°21'0 0.0
2016-Apr-24 00:33N 59°42' E 028°21'0 0.0
2016-Apr-23 23:33N 59°42' E 028°21'0 0.0
2016-Apr-23 22:33N 59°42' E 028°21'0 0.0
2016-Apr-23 21:33N 59°42' E 028°21'0 0.0
2016-Apr-23 20:33N 59°42' E 028°21'0 0.0
2016-Apr-23 19:24N 59°42' E 028°21'0 0.0
2016-Apr-23 18:27N 59°42' E 028°21'0 0.0
2016-Apr-23 17:27N 59°42' E 028°21'0 0.0
2016-Apr-23 16:27N 59°42' E 028°21'0 0.0
2016-Apr-23 15:27N 59°42' E 028°21'0 0.0
2016-Apr-23 14:30N 59°42' E 028°21'0 0.0
2016-Apr-23 13:30N 59°42' E 028°21'0 0.0
2016-Apr-23 12:33N 59°42' E 028°21'0 0.0
2016-Apr-23 11:33N 59°42' E 028°21'0 0.0
2016-Apr-23 10:33N 59°42' E 028°21'0 0.0
2016-Apr-23 09:33N 59°42' E 028°21'0 0.0
2016-Apr-23 08:30N 59°42' E 028°21'0 0.0
2016-Apr-23 07:33N 59°42' E 028°21'0 0.0
2016-Apr-23 06:33N 59°42' E 028°21'0 0.0
2016-Apr-23 04:24N 59°42' E 028°21'0 0.0
2016-Apr-23 03:27N 59°42' E 028°21'0 0.0
2016-Apr-23 02:27N 59°42' E 028°21'0 0.0
2016-Apr-23 01:24N 59°42' E 028°21'0 0.0
2016-Apr-23 00:30N 59°42' E 028°21'0 0.1
2016-Apr-22 23:30N 59°42' E 028°21'0 0.0
2016-Apr-22 22:30N 59°42' E 028°21'0 0.0
2016-Apr-22 21:33N 59°42' E 028°21'0 0.0
2016-Apr-22 20:33N 59°42' E 028°21'0 0.0
2016-Apr-22 19:33N 59°42' E 028°21'0 0.0
2016-Apr-22 18:33N 59°42' E 028°21'0 0.0
2016-Apr-22 17:33N 59°42' E 028°21'0 0.0
2016-Apr-22 16:33N 59°42' E 028°21'0 0.0
2016-Apr-22 15:24N 59°42' E 028°21'0 0.0
2016-Apr-22 14:27N 59°42' E 028°21'0 0.0
2016-Apr-22 13:27N 59°42' E 028°21'0 0.0
2016-Apr-22 12:27N 59°42' E 028°21'0 0.0
2016-Apr-22 11:30N 59°42' E 028°21'0 0.0
2016-Apr-22 10:30N 59°42' E 028°21'0 0.0
2016-Apr-22 09:30N 59°42' E 028°21'0 0.0
2016-Apr-22 08:33N 59°42' E 028°21'0 0.0
2016-Apr-22 07:33N 59°42' E 028°21'0 0.0
2016-Apr-22 06:33N 59°42' E 028°21'0 0.1
2016-Apr-22 05:33N 59°42' E 028°21'0 0.0
2016-Apr-22 04:33N 59°42' E 028°21'0 0.0
2016-Apr-22 03:33N 59°42' E 028°21'0 0.0
2016-Apr-22 02:33N 59°42' E 028°21'0 0.0
2016-Apr-22 01:24N 59°42' E 028°21'0 0.0
2016-Apr-22 00:24N 59°42' E 028°21'0 0.0
2016-Apr-21 23:27N 59°42' E 028°21'0 0.0
2016-Apr-21 22:27N 59°42' E 028°21'0 0.0
2016-Apr-21 21:27N 59°42' E 028°21'0 0.0
2016-Apr-21 20:30N 59°42' E 028°21'0 0.0
2016-Apr-21 19:30N 59°42' E 028°21'0 0.0
2016-Apr-21 18:33N 59°42' E 028°21'0 0.0
2016-Apr-21 17:33N 59°42' E 028°21'0 0.0
2016-Apr-21 16:33N 59°42' E 028°21'0 0.0
2016-Apr-21 15:33N 59°42' E 028°21'0 0.0
2016-Apr-21 14:33N 59°42' E 028°21'0 0.0
2016-Apr-21 13:33N 59°42' E 028°21'0 0.0
2016-Apr-21 12:33N 59°42' E 028°21'0 0.0
2016-Apr-21 11:24N 59°42' E 028°21'0 0.0
2016-Apr-21 10:24N 59°42' E 028°21'0 0.0
2016-Apr-21 09:27N 59°42' E 028°21'0 0.0
2016-Apr-21 08:28N 59°42' E 028°21'0 0.0
2016-Apr-21 07:33N 59°42' E 028°21'0 0.0
2016-Apr-21 06:31N 59°42' E 028°21'0 0.0
2016-Apr-21 05:30N 59°42' E 028°21'0 0.0
2016-Apr-21 04:33N 59°42' E 028°21'0 0.0
2016-Apr-21 03:33N 59°42' E 028°21'0 0.0
2016-Apr-21 02:33N 59°42' E 028°21'0 0.0
2016-Apr-21 01:33N 59°42' E 028°21'0 0.0
2016-Apr-21 00:33N 59°42' E 028°21'0 0.0
2016-Apr-20 23:33N 59°42' E 028°21'0 0.0
2016-Apr-20 22:33N 59°42' E 028°21'2 1.7
2016-Apr-20 21:33N 59°41' E 028°25'0 0.3
2016-Apr-20 20:33N 59°41' E 028°25'0 0.0
2016-Apr-20 19:33N 59°41' E 028°25'0 0.0
2016-Apr-20 18:33N 59°41' E 028°25'0 0.0
2016-Apr-20 17:33N 59°41' E 028°25'0 0.0
2016-Apr-20 16:33N 59°41' E 028°25'0 0.0
2016-Apr-20 15:33N 59°41' E 028°25'2 1.6
2016-Apr-20 14:24N 59°42' E 028°22'0 0.0
2016-Apr-20 13:27N 59°42' E 028°22'0 0.0
2016-Apr-20 12:27N 59°42' E 028°22'0 0.0
2016-Apr-20 11:27N 59°42' E 028°22'0 0.0
2016-Apr-20 10:30N 59°42' E 028°22'0 0.0
2016-Apr-20 09:30N 59°42' E 028°22'0 0.0
2016-Apr-20 08:30N 59°42' E 028°22'0 0.0
2016-Apr-20 07:33N 59°42' E 028°22'0 0.0
2016-Apr-20 06:33N 59°42' E 028°22'0 0.0
2016-Apr-20 05:33N 59°42' E 028°22'0 0.0
2016-Apr-20 04:33N 59°42' E 028°22'0 0.0
2016-Apr-20 03:33N 59°42' E 028°22'0 0.0
2016-Apr-20 02:33N 59°42' E 028°22'0 0.0
2016-Apr-20 01:33N 59°42' E 028°22'0 0.0
2016-Apr-20 00:24N 59°42' E 028°22'0 0.0
2016-Apr-19 23:27N 59°42' E 028°22'2 1.7
2016-Apr-19 22:33N 59°41' E 028°24'  
Track history (hours):
 
Tides and Currents Weather Stations Pressure Air Temp Water Temp Dewpoint Dewpoint Depression Visibility Wind Speed Wind Dir Waves Ship Positions

Vidnoe

Last reported at 2016-Apr-29 22:33 UTC. Time now 2016-Apr-29 23:31 UTC.
Position N 59°53' E 030°13'.

Length 115 m; beam 17 m.

Type: Tanker. MMSI: 273516400.

Date/timePositionNaut miles runAvg speedWind from/ knotsBaromVisibWave heightAir tempDewpointWater temp
2016-Apr-29 22:33N 59°53' E 030°13'0 0.0
2016-Apr-29 21:33N 59°53' E 030°13'0 0.0
2016-Apr-29 20:33N 59°53' E 030°13'0 0.0
2016-Apr-29 19:33N 59°53' E 030°13'0 0.0
2016-Apr-29 18:33N 59°53' E 030°13'0 0.0
2016-Apr-29 17:33N 59°53' E 030°13'0 0.0
2016-Apr-29 16:33N 59°53' E 030°13'0 0.0
2016-Apr-29 15:33N 59°53' E 030°13'0 0.0
2016-Apr-29 14:33N 59°53' E 030°13'0 0.0
2016-Apr-29 13:33N 59°53' E 030°13'0 0.0
2016-Apr-29 12:33N 59°53' E 030°13'0 0.0
2016-Apr-29 11:30N 59°53' E 030°13'0 0.0
2016-Apr-29 10:33N 59°53' E 030°13'0 0.0
2016-Apr-29 09:33N 59°53' E 030°13'0 0.0
2016-Apr-29 08:33N 59°53' E 030°13'0 0.0
2016-Apr-29 07:33N 59°53' E 030°13'0 0.0
2016-Apr-29 06:33N 59°53' E 030°13'0 0.0
2016-Apr-29 05:33N 59°53' E 030°13'0 0.0
2016-Apr-29 04:33N 59°53' E 030°13'0 0.0
2016-Apr-29 03:33N 59°53' E 030°13'0 0.0
2016-Apr-29 02:33N 59°53' E 030°13'0 0.0
2016-Apr-29 01:30N 59°53' E 030°13'0 0.0
2016-Apr-29 00:33N 59°53' E 030°13'0 0.0
2016-Apr-28 23:33N 59°53' E 030°13'0 0.0
2016-Apr-28 22:33N 59°53' E 030°13'0 0.0
2016-Apr-28 21:33N 59°53' E 030°13'0 0.0
2016-Apr-28 20:33N 59°53' E 030°13'0 0.0
2016-Apr-28 19:33N 59°53' E 030°13'0 0.0
2016-Apr-28 18:33N 59°53' E 030°13'0 0.0
2016-Apr-28 17:30N 59°53' E 030°13'0 0.0
2016-Apr-28 16:33N 59°53' E 030°13'0 0.0
2016-Apr-28 15:33N 59°53' E 030°13'0 0.0
2016-Apr-28 14:33N 59°53' E 030°13'0 0.0
2016-Apr-28 13:33N 59°53' E 030°13'0 0.0
2016-Apr-28 12:33N 59°53' E 030°13'0 0.0
2016-Apr-28 11:33N 59°53' E 030°13'0 0.0
2016-Apr-28 10:33N 59°53' E 030°13'0 0.0
2016-Apr-28 09:33N 59°53' E 030°13'0 0.0
2016-Apr-28 08:33N 59°53' E 030°13'0 0.0
2016-Apr-28 07:33N 59°53' E 030°13'0 0.0
2016-Apr-28 06:33N 59°53' E 030°13'0 0.0
2016-Apr-28 05:33N 59°53' E 030°13'3 3.1
2016-Apr-28 04:33N 59°54' E 030°08'1110.6
2016-Apr-28 03:33N 59°58' E 029°48'1110.7
2016-Apr-28 02:33N 60°01' E 029°28'4 0.5
2016-Apr-27 18:13N 60°01' E 029°20'811.6
2016-Apr-27 17:33N 60°02' E 029°04'1211.6
2016-Apr-27 16:33N 60°00' E 028°41'1212.3
2016-Apr-27 15:33N 59°50' E 028°26'4 3.4
2016-Apr-27 14:30N 59°47' E 028°25'0 0.1
2016-Apr-27 13:33N 59°47' E 028°25'0 0.1
2016-Apr-27 12:33N 59°47' E 028°25'0 0.0
2016-Apr-27 11:33N 59°47' E 028°25'0 0.0
2016-Apr-27 10:33N 59°47' E 028°25'0 0.0
2016-Apr-27 09:33N 59°47' E 028°25'0 0.0
2016-Apr-27 08:33N 59°47' E 028°25'0 0.0
2016-Apr-27 07:24N 59°47' E 028°25'0 0.0
2016-Apr-27 06:27N 59°47' E 028°25'0 0.0
2016-Apr-27 05:27N 59°47' E 028°25'0 0.0
2016-Apr-27 04:27N 59°47' E 028°25'0 0.0
2016-Apr-27 03:30N 59°47' E 028°25'0 0.2
2016-Apr-27 02:30N 59°47' E 028°25'0 0.0
2016-Apr-27 01:30N 59°47' E 028°25'0 0.1
2016-Apr-27 00:33N 59°47' E 028°25'5 4.6
2016-Apr-26 23:33N 59°42' E 028°22'1 0.8
2016-Apr-26 22:24N 59°42' E 028°21'0 0.0
2016-Apr-26 21:24N 59°42' E 028°21'0 0.0
2016-Apr-26 20:27N 59°42' E 028°21'0 0.0
2016-Apr-26 19:30N 59°42' E 028°21'0 0.0
2016-Apr-26 18:30N 59°42' E 028°21'0 0.0
2016-Apr-26 17:33N 59°42' E 028°21'0 0.0
2016-Apr-26 16:33N 59°42' E 028°21'0 0.0
2016-Apr-26 15:33N 59°42' E 028°21'0 0.0
2016-Apr-26 14:33N 59°42' E 028°21'0 0.0
2016-Apr-26 13:33N 59°42' E 028°21'0 0.0
2016-Apr-26 12:33N 59°42' E 028°21'0 0.0
2016-Apr-26 11:33N 59°42' E 028°21'0 0.0
2016-Apr-26 10:24N 59°42' E 028°21'0 0.0
2016-Apr-26 09:24N 59°42' E 028°21'0 0.0
2016-Apr-26 08:27N 59°42' E 028°21'0 0.0
2016-Apr-26 07:27N 59°42' E 028°21'0 0.0
2016-Apr-26 06:27N 59°42' E 028°21'0 0.0
2016-Apr-26 05:30N 59°42' E 028°21'0 0.0
2016-Apr-26 04:30N 59°42' E 028°21'0 0.0
2016-Apr-26 03:33N 59°42' E 028°21'0 0.0
2016-Apr-26 02:33N 59°42' E 028°21'0 0.0
2016-Apr-26 01:33N 59°42' E 028°21'2 1.5
2016-Apr-26 00:33N 59°41' E 028°24'1 0.7
2016-Apr-25 23:33N 59°42' E 028°26'0 0.0
2016-Apr-25 22:33N 59°42' E 028°26'0 0.0
2016-Apr-25 21:33N 59°42' E 028°26'0 0.0
2016-Apr-25 20:33N 59°42' E 028°26'0 0.0
2016-Apr-25 19:33N 59°42' E 028°26'0 0.0
2016-Apr-25 18:33N 59°42' E 028°26'0 0.0
2016-Apr-25 17:33N 59°42' E 028°26'0 0.0
2016-Apr-25 16:33N 59°42' E 028°26'0 0.0
2016-Apr-25 15:33N 59°42' E 028°26'0 0.0
2016-Apr-25 14:33N 59°42' E 028°26'0 0.0
2016-Apr-25 13:33N 59°42' E 028°26'0 0.0
2016-Apr-25 12:33N 59°42' E 028°26'0 0.2
2016-Apr-25 11:33N 59°42' E 028°25'2 2.0
2016-Apr-25 10:33N 59°42' E 028°21'0 0.1
2016-Apr-25 09:27N 59°42' E 028°21'0 0.0
2016-Apr-25 08:30N 59°42' E 028°21'0 0.0
2016-Apr-25 07:30N 59°42' E 028°21'0 0.0
2016-Apr-25 06:33N 59°42' E 028°21'0 0.0
2016-Apr-25 05:30N 59°42' E 028°21'0 0.0
2016-Apr-25 04:33N 59°42' E 028°21'0 0.1
2016-Apr-25 03:33N 59°42' E 028°21'0 0.0
2016-Apr-25 02:33N 59°42' E 028°21'0 0.0
2016-Apr-25 01:33N 59°42' E 028°21'0 0.0
2016-Apr-25 00:33N 59°42' E 028°21'0 0.0
2016-Apr-24 23:24N 59°42' E 028°21'0 0.0
2016-Apr-24 22:24N 59°42' E 028°21'0 0.0
2016-Apr-24 21:27N 59°42' E 028°21'0 0.0
2016-Apr-24 20:27N 59°42' E 028°21'0 0.0
2016-Apr-24 19:30N 59°42' E 028°21'0 0.0
2016-Apr-24 18:30N 59°42' E 028°21'0 0.0
2016-Apr-24 17:30N 59°42' E 028°21'0 0.0
2016-Apr-24 16:33N 59°42' E 028°21'0 0.0
2016-Apr-24 15:33N 59°42' E 028°21'0 0.0
2016-Apr-24 14:33N 59°42' E 028°21'0 0.0
2016-Apr-24 13:33N 59°42' E 028°21'0 0.1
2016-Apr-24 12:33N 59°42' E 028°21'0 0.0
2016-Apr-24 11:33N 59°42' E 028°21'0 0.0
2016-Apr-24 10:33N 59°42' E 028°21'0 0.0
2016-Apr-24 09:24N 59°42' E 028°21'0 0.1
2016-Apr-24 08:24N 59°42' E 028°21'0 0.0
2016-Apr-24 07:27N 59°42' E 028°21'0 0.0
2016-Apr-24 06:27N 59°42' E 028°21'0 0.0
2016-Apr-24 05:30N 59°42' E 028°21'0 0.0
2016-Apr-24 04:30N 59°42' E 028°21'0 0.0
2016-Apr-24 03:30N 59°42' E 028°21'0 0.0
2016-Apr-24 02:33N 59°42' E 028°21'0 0.0
2016-Apr-24 01:33N 59°42' E 028°21'0 0.0
2016-Apr-24 00:33N 59°42' E 028°21'0 0.0
2016-Apr-23 23:33N 59°42' E 028°21'0 0.0
2016-Apr-23 22:33N 59°42' E 028°21'0 0.0
2016-Apr-23 21:33N 59°42' E 028°21'0 0.0
2016-Apr-23 20:33N 59°42' E 028°21'0 0.0
2016-Apr-23 19:24N 59°42' E 028°21'0 0.0
2016-Apr-23 18:27N 59°42' E 028°21'0 0.0
2016-Apr-23 17:27N 59°42' E 028°21'0 0.0
2016-Apr-23 16:27N 59°42' E 028°21'0 0.0
2016-Apr-23 15:27N 59°42' E 028°21'0 0.0
2016-Apr-23 14:30N 59°42' E 028°21'0 0.0
2016-Apr-23 13:30N 59°42' E 028°21'0 0.0
2016-Apr-23 12:33N 59°42' E 028°21'0 0.0
2016-Apr-23 11:33N 59°42' E 028°21'0 0.0
2016-Apr-23 10:33N 59°42' E 028°21'0 0.0
2016-Apr-23 09:33N 59°42' E 028°21'0 0.0
2016-Apr-23 08:30N 59°42' E 028°21'0 0.0
2016-Apr-23 07:33N 59°42' E 028°21'0 0.0
2016-Apr-23 06:33N 59°42' E 028°21'0 0.0
2016-Apr-23 04:24N 59°42' E 028°21'0 0.0
2016-Apr-23 03:27N 59°42' E 028°21'0 0.0
2016-Apr-23 02:27N 59°42' E 028°21'0 0.0
2016-Apr-23 01:24N 59°42' E 028°21'0 0.0
2016-Apr-23 00:30N 59°42' E 028°21'0 0.1
2016-Apr-22 23:30N 59°42' E 028°21'0 0.0
2016-Apr-22 22:30N 59°42' E 028°21'0 0.0
2016-Apr-22 21:33N 59°42' E 028°21'0 0.0
2016-Apr-22 20:33N 59°42' E 028°21'0 0.0
2016-Apr-22 19:33N 59°42' E 028°21'0 0.0
2016-Apr-22 18:33N 59°42' E 028°21'0 0.0
2016-Apr-22 17:33N 59°42' E 028°21'0 0.0
2016-Apr-22 16:33N 59°42' E 028°21'0 0.0
2016-Apr-22 15:24N 59°42' E 028°21'0 0.0
2016-Apr-22 14:27N 59°42' E 028°21'0 0.0
2016-Apr-22 13:27N 59°42' E 028°21'0 0.0
2016-Apr-22 12:27N 59°42' E 028°21'0 0.0
2016-Apr-22 11:30N 59°42' E 028°21'0 0.0
2016-Apr-22 10:30N 59°42' E 028°21'0 0.0
2016-Apr-22 09:30N 59°42' E 028°21'0 0.0
2016-Apr-22 08:33N 59°42' E 028°21'0 0.0
2016-Apr-22 07:33N 59°42' E 028°21'0 0.0
2016-Apr-22 06:33N 59°42' E 028°21'0 0.1
2016-Apr-22 05:33N 59°42' E 028°21'0 0.0
2016-Apr-22 04:33N 59°42' E 028°21'0 0.0
2016-Apr-22 03:33N 59°42' E 028°21'0 0.0
2016-Apr-22 02:33N 59°42' E 028°21'0 0.0
2016-Apr-22 01:24N 59°42' E 028°21'0 0.0
2016-Apr-22 00:24N 59°42' E 028°21'0 0.0
2016-Apr-21 23:27N 59°42' E 028°21'0 0.0
2016-Apr-21 22:27N 59°42' E 028°21'0 0.0
2016-Apr-21 21:27N 59°42' E 028°21'0 0.0
2016-Apr-21 20:30N 59°42' E 028°21'0 0.0
2016-Apr-21 19:30N 59°42' E 028°21'0 0.0
2016-Apr-21 18:33N 59°42' E 028°21'0 0.0
2016-Apr-21 17:33N 59°42' E 028°21'0 0.0
2016-Apr-21 16:33N 59°42' E 028°21'0 0.0
2016-Apr-21 15:33N 59°42' E 028°21'0 0.0
2016-Apr-21 14:33N 59°42' E 028°21'0 0.0
2016-Apr-21 13:33N 59°42' E 028°21'0 0.0
2016-Apr-21 12:33N 59°42' E 028°21'0 0.0
2016-Apr-21 11:24N 59°42' E 028°21'0 0.0
2016-Apr-21 10:24N 59°42' E 028°21'0 0.0
2016-Apr-21 09:27N 59°42' E 028°21'0 0.0
2016-Apr-21 08:28N 59°42' E 028°21'0 0.0
2016-Apr-21 07:33N 59°42' E 028°21'0 0.0
2016-Apr-21 06:31N 59°42' E 028°21'0 0.0
2016-Apr-21 05:30N 59°42' E 028°21'0 0.0
2016-Apr-21 04:33N 59°42' E 028°21'0 0.0
2016-Apr-21 03:33N 59°42' E 028°21'0 0.0
2016-Apr-21 02:33N 59°42' E 028°21'0 0.0
2016-Apr-21 01:33N 59°42' E 028°21'0 0.0
2016-Apr-21 00:33N 59°42' E 028°21'0 0.0
2016-Apr-20 23:33N 59°42' E 028°21'0 0.0
2016-Apr-20 22:33N 59°42' E 028°21'2 1.7
2016-Apr-20 21:33N 59°41' E 028°25'0 0.3
2016-Apr-20 20:33N 59°41' E 028°25'0 0.0
2016-Apr-20 19:33N 59°41' E 028°25'0 0.0
2016-Apr-20 18:33N 59°41' E 028°25'0 0.0
2016-Apr-20 17:33N 59°41' E 028°25'0 0.0
2016-Apr-20 16:33N 59°41' E 028°25'0 0.0
2016-Apr-20 15:33N 59°41' E 028°25'2 1.6
2016-Apr-20 14:24N 59°42' E 028°22'0 0.0
2016-Apr-20 13:27N 59°42' E 028°22'0 0.0
2016-Apr-20 12:27N 59°42' E 028°22'0 0.0
2016-Apr-20 11:27N 59°42' E 028°22'0 0.0
2016-Apr-20 10:30N 59°42' E 028°22'0 0.0
2016-Apr-20 09:30N 59°42' E 028°22'0 0.0
2016-Apr-20 08:30N 59°42' E 028°22'0 0.0
2016-Apr-20 07:33N 59°42' E 028°22'0 0.0
2016-Apr-20 06:33N 59°42' E 028°22'0 0.0
2016-Apr-20 05:33N 59°42' E 028°22'0 0.0
2016-Apr-20 04:33N 59°42' E 028°22'0 0.0
2016-Apr-20 03:33N 59°42' E 028°22'0 0.0
2016-Apr-20 02:33N 59°42' E 028°22'0 0.0
2016-Apr-20 01:33N 59°42' E 028°22'0 0.0
2016-Apr-20 00:24N 59°42' E 028°22'0 0.0
2016-Apr-19 23:27N 59°42' E 028°22'2 1.7
2016-Apr-19 22:33N 59°41' E 028°24'  

Dump ship's entire track history